Time,TemperatureF,DewpointF,PressureIn,WindDirection,WindDirectionDegrees,WindSpeedMPH,WindSpeedGustMPH,Humidity,HourlyPrecipIn,Conditions,Clouds,dailyrainin,SoftwareType,DateUTC
2013-08-10 00:02:00,66.0,63.0,29.90,West,281,2.0,5.0,91,-99.99,,,-99.99,,2013-08-10 07:02:00,
2013-08-10 00:22:00,65.0,62.0,29.91,SSW,199,2.0,4.0,87,-99.99,,,-99.99,,2013-08-10 07:22:00,
2013-08-10 00:43:00,64.0,62.0,29.92,SSE,167,1.0,1.0,93,-99.99,,,-99.99,,2013-08-10 07:43:00,
2013-08-10 00:52:00,63.0,62.0,29.92,West,279,1.0,2.0,94,-99.99,,,-99.99,,2013-08-10 07:52:00,
2013-08-10 01:01:00,64.0,62.0,29.92,NNW,334,0.0,2.0,95,-99.99,,,-99.99,,2013-08-10 08:01:00,
2013-08-10 01:12:00,63.0,62.0,29.92,SE,126,4.0,5.0,95,-99.99,,,-99.99,,2013-08-10 08:12:00,
2013-08-10 01:21:00,63.0,62.0,29.92,SSE,166,2.0,5.0,95,-99.99,,,-99.99,,2013-08-10 08:21:00,
2013-08-10 01:32:00,63.0,62.0,29.92,SSE,158,2.0,4.0,95,-99.99,,,-99.99,,2013-08-10 08:32:00,
2013-08-10 01:43:00,63.0,62.0,29.92,SSW,209,3.0,6.0,94,-99.99,,,-99.99,,2013-08-10 08:43:00,
2013-08-10 01:52:00,63.0,61.0,29.92,SW,220,2.0,4.0,93,-99.99,,,-99.99,,2013-08-10 08:52:00,
2013-08-10 02:02:00,63.0,61.0,29.92,WSW,240,3.0,3.0,93,-99.99,,,-99.99,,2013-08-10 09:02:00,
2013-08-10 02:12:00,63.0,61.0,29.92,West,270,3.0,4.0,94,-99.99,,,-99.99,,2013-08-10 09:12:00,
2013-08-10 02:21:00,63.0,61.0,29.92,WSW,248,4.0,4.0,93,-99.99,,,-99.99,,2013-08-10 09:21:00,
2013-08-10 02:32:00,63.0,61.0,29.92,SW,221,2.0,3.0,92,-99.99,,,-99.99,,2013-08-10 09:32:00,
2013-08-10 02:52:00,63.0,61.0,29.92,SE,137,2.0,4.0,93,-99.99,,,-99.99,,2013-08-10 09:52:00,
2013-08-10 03:01:00,63.0,61.0,29.92,South,186,2.0,5.0,93,-99.99,,,-99.99,,2013-08-10 10:01:00,
2013-08-10 03:11:00,63.0,60.0,29.91,SSW,194,2.0,4.0,92,-99.99,,,-99.99,,2013-08-10 10:11:00,
2013-08-10 03:33:00,63.0,60.0,29.91,South,190,2.0,7.0,91,-99.99,,,-99.99,,2013-08-10 10:33:00,
2013-08-10 03:44:00,63.0,60.0,29.91,SSW,208,3.0,9.0,90,-99.99,,,-99.99,,2013-08-10 10:44:00,
2013-08-10 03:52:00,63.0,59.0,29.91,SSW,213,3.0,6.0,88,-99.99,,,-99.99,,2013-08-10 10:52:00,
2013-08-10 04:02:00,63.0,59.0,29.91,SW,214,2.0,5.0,86,-99.99,,,-99.99,,2013-08-10 11:02:00,
2013-08-10 04:11:00,63.0,59.0,29.91,SSW,202,2.0,6.0,87,-99.99,,,-99.99,,2013-08-10 11:11:00,
2013-08-10 04:21:00,63.0,59.0,29.91,SW,224,1.0,6.0,88,-99.99,,,-99.99,,2013-08-10 11:21:00,
2013-08-10 04:33:00,63.0,59.0,29.91,SW,224,1.0,6.0,88,-99.99,,,-99.99,,2013-08-10 11:33:00,
2013-08-10 04:43:00,63.0,60.0,29.91,West,262,4.0,11.0,87,-99.99,,,-99.99,,2013-08-10 11:43:00,
2013-08-10 04:52:00,64.0,59.0,29.91,SW,222,3.0,9.0,85,-99.99,,,-99.99,,2013-08-10 11:52:00,
2013-08-10 05:01:00,63.0,59.0,29.91,SSW,208,3.0,8.0,84,-99.99,,,-99.99,,2013-08-10 12:01:00,
2013-08-10 05:11:00,63.0,59.0,29.91,WSW,239,4.0,8.0,88,-99.99,,,-99.99,,2013-08-10 12:11:00,
2013-08-10 05:32:00,63.0,59.0,29.92,WSW,244,5.0,9.0,87,-99.99,,,-99.99,,2013-08-10 12:32:00,
2013-08-10 05:42:00,62.0,58.0,29.92,WSW,240,1.0,3.0,87,-99.99,,,-99.99,,2013-08-10 12:42:00,
2013-08-10 05:52:00,61.0,58.0,29.92,ESE,114,2.0,3.0,89,-99.99,,,-99.99,,2013-08-10 12:52:00,
2013-08-10 06:21:00,60.0,59.0,29.93,WNW,292,1.0,4.0,93,-99.99,,,-99.99,,2013-08-10 13:21:00,
2013-08-10 06:43:00,61.0,58.0,29.94,South,189,3.0,4.0,90,-99.99,,,-99.99,,2013-08-10 13:43:00,
2013-08-10 06:52:00,60.0,57.0,29.95,ESE,113,3.0,4.0,91,-99.99,,,-99.99,,2013-08-10 13:52:00,
2013-08-10 07:02:00,60.0,58.0,29.95,SE,141,2.0,5.0,94,-99.99,,,-99.99,,2013-08-10 14:02:00,
2013-08-10 07:12:00,59.0,58.0,29.95,East,89,2.0,3.0,94,-99.99,,,-99.99,,2013-08-10 14:12:00,
2013-08-10 07:22:00,59.0,58.0,29.95,ESE,119,5.0,6.0,94,-99.99,,,-99.99,,2013-08-10 14:22:00,
2013-08-10 07:32:00,60.0,58.0,29.95,ESE,123,2.0,2.0,94,-99.99,,,-99.99,,2013-08-10 14:32:00,
2013-08-10 07:42:00,60.0,58.0,29.96,SE,129,2.0,4.0,93,-99.99,,,-99.99,,2013-08-10 14:42:00,
2013-08-10 07:53:00,61.0,59.0,29.96,South,182,1.0,2.0,92,-99.99,,,-99.99,,2013-08-10 14:53:00,
2013-08-10 08:11:00,62.0,59.0,29.96,ESE,121,4.0,5.0,91,-99.99,,,-99.99,,2013-08-10 15:11:00,
2013-08-10 08:22:00,63.0,59.0,29.96,South,174,3.0,4.0,88,-99.99,,,-99.99,,2013-08-10 15:22:00,
2013-08-10 08:33:00,64.0,60.0,29.96,SSW,202,1.0,5.0,88,-99.99,,,-99.99,,2013-08-10 15:33:00,
2013-08-10 08:43:00,66.0,61.0,29.96,NW,309,0.0,8.0,85,-99.99,,,-99.99,,2013-08-10 15:43:00,
2013-08-10 08:52:00,67.0,60.0,29.96,WNW,283,5.0,11.0,80,-99.99,,,-99.99,,2013-08-10 15:52:00,
2013-08-10 09:01:00,68.0,61.0,29.96,WNW,289,6.0,10.0,77,-99.99,,,-99.99,,2013-08-10 16:01:00,
2013-08-10 09:11:00,68.0,61.0,29.96,WNW,285,7.0,15.0,76,-99.99,,,-99.99,,2013-08-10 16:11:00,
2013-08-10 09:43:00,69.0,61.0,29.96,West,271,11.0,22.0,74,-99.99,,,-99.99,,2013-08-10 16:43:00,
2013-08-10 09:53:00,70.0,62.0,29.96,West,270,10.0,21.0,74,-99.99,,,-99.99,,2013-08-10 16:53:00,
2013-08-10 10:02:00,70.0,61.0,29.96,West,268,7.0,15.0,72,-99.99,,,-99.99,,2013-08-10 17:02:00,
2013-08-10 10:12:00,71.0,61.0,29.96,West,267,7.0,12.0,72,-99.99,,,-99.99,,2013-08-10 17:12:00,
2013-08-10 10:22:00,71.0,61.0,29.96,WNW,283,12.0,27.0,70,-99.99,,,-99.99,,2013-08-10 17:22:00,
2013-08-10 10:33:00,71.0,61.0,29.96,West,280,12.0,21.0,69,-99.99,,,-99.99,,2013-08-10 17:33:00,
2013-08-10 10:43:00,72.0,61.0,29.96,West,275,10.0,17.0,69,-99.99,,,-99.99,,2013-08-10 17:43:00,
2013-08-10 10:52:00,72.0,60.0,29.96,West,276,15.0,26.0,67,-99.99,,,-99.99,,2013-08-10 17:52:00,
2013-08-10 11:01:00,72.0,61.0,29.97,West,274,13.0,24.0,67,-99.99,,,-99.99,,2013-08-10 18:01:00,
2013-08-10 11:11:00,73.0,60.0,29.96,West,271,12.0,21.0,64,-99.99,,,-99.99,,2013-08-10 18:11:00,
2013-08-10 11:23:00,73.0,60.0,29.96,West,274,10.0,20.0,62,-99.99,,,-99.99,,2013-08-10 18:23:00,
2013-08-10 11:43:00,75.0,60.0,29.96,West,279,9.0,17.0,60,-99.99,,,-99.99,,2013-08-10 18:43:00,
2013-08-10 11:52:00,74.0,59.0,29.97,West,269,13.0,25.0,60,-99.99,,,-99.99,,2013-08-10 18:52:00,
2013-08-10 12:01:00,74.0,60.0,29.96,WNW,282,12.0,21.0,60,-99.99,,,-99.99,,2013-08-10 19:01:00,
2013-08-10 12:11:00,75.0,59.0,29.95,WNW,288,15.0,27.0,57,-99.99,,,-99.99,,2013-08-10 19:11:00,
2013-08-10 12:22:00,75.0,59.0,29.95,WNW,288,15.0,27.0,57,-99.99,,,-99.99,,2013-08-10 19:22:00,
2013-08-10 12:44:00,74.0,59.0,29.95,WNW,285,14.0,23.0,57,-99.99,,,-99.99,,2013-08-10 19:44:00,
2013-08-10 13:11:00,74.0,59.0,29.94,WNW,291,12.0,18.0,57,-99.99,,,-99.99,,2013-08-10 20:11:00,
2013-08-10 13:22:00,75.0,60.0,29.96,West,269,9.0,16.0,60,-99.99,,,-99.99,,2013-08-10 20:22:00,
2013-08-10 13:33:00,75.0,59.0,29.93,WNW,288,12.0,23.0,57,-99.99,,,-99.99,,2013-08-10 20:33:00,
2013-08-10 13:43:00,76.0,60.0,29.94,West,272,10.0,21.0,57,-99.99,,,-99.99,,2013-08-10 20:43:00,
2013-08-10 14:02:00,75.0,60.0,29.95,West,268,8.0,15.0,59,-99.99,,,-99.99,,2013-08-10 21:02:00,
2013-08-10 14:11:00,76.0,61.0,29.93,West,278,11.0,20.0,58,-99.99,,,-99.99,,2013-08-10 21:11:00,
2013-08-10 14:22:00,76.0,61.0,29.93,West,278,11.0,20.0,58,-99.99,,,-99.99,,2013-08-10 21:22:00,
2013-08-10 14:32:00,79.0,60.0,29.92,West,269,11.0,17.0,53,-99.99,,,-99.99,,2013-08-10 21:32:00,
2013-08-10 14:42:00,79.0,61.0,29.91,West,278,8.0,16.0,53,-99.99,,,-99.99,,2013-08-10 21:42:00,
2013-08-10 14:52:00,80.0,61.0,29.92,West,264,10.0,18.0,53,-99.99,,,-99.99,,2013-08-10 21:52:00,
2013-08-10 15:01:00,79.0,61.0,29.92,West,280,10.0,17.0,52,-99.99,,,-99.99,,2013-08-10 22:01:00,
2013-08-10 15:11:00,79.0,62.0,29.92,West,268,8.0,15.0,54,-99.99,,,-99.99,,2013-08-10 22:11:00,
2013-08-10 15:21:00,79.0,62.0,29.92,West,268,8.0,15.0,54,-99.99,,,-99.99,,2013-08-10 22:21:00,
2013-08-10 15:43:00,78.0,61.0,29.90,WNW,291,8.0,15.0,55,-99.99,,,-99.99,,2013-08-10 22:43:00,
2013-08-10 15:52:00,77.0,61.0,29.91,West,271,9.0,20.0,56,-99.99,,,-99.99,,2013-08-10 22:52:00,
2013-08-10 16:12:00,77.0,61.0,29.90,WNW,288,9.0,16.0,56,-99.99,,,-99.99,,2013-08-10 23:12:00,
2013-08-10 16:22:00,77.0,60.0,29.91,WNW,286,8.0,14.0,56,-99.99,,,-99.99,,2013-08-10 23:22:00,
2013-08-10 16:32:00,77.0,61.0,29.91,West,277,8.0,17.0,58,-99.99,,,-99.99,,2013-08-10 23:32:00,
2013-08-10 16:43:00,77.0,61.0,29.92,West,267,9.0,16.0,58,-99.99,,,-99.99,,2013-08-10 23:43:00,
2013-08-10 17:01:00,76.0,61.0,29.92,West,277,9.0,22.0,58,-99.99,,,-99.99,,2013-08-11 00:01:00,
2013-08-10 17:11:00,76.0,60.0,29.90,WNW,283,10.0,16.0,58,-99.99,,,-99.99,,2013-08-11 00:11:00,
2013-08-10 17:22:00,76.0,60.0,29.92,West,267,9.0,18.0,58,-99.99,,,-99.99,,2013-08-11 00:22:00,
2013-08-10 17:32:00,76.0,60.0,29.94,WSW,254,7.0,15.0,58,-99.99,,,-99.99,,2013-08-11 00:32:00,
2013-08-10 17:42:00,76.0,60.0,29.95,WSW,239,7.0,13.0,58,-99.99,,,-99.99,,2013-08-11 00:42:00,
2013-08-10 17:52:00,75.0,60.0,29.95,West,274,13.0,20.0,58,-99.99,,,-99.99,,2013-08-11 00:52:00,
2013-08-10 18:01:00,75.0,59.0,29.96,West,269,8.0,15.0,58,-99.99,,,-99.99,,2013-08-11 01:01:00,
2013-08-10 18:11:00,74.0,61.0,29.94,WSW,249,6.0,11.0,62,-99.99,,,-99.99,,2013-08-11 01:11:00,
2013-08-10 18:22:00,74.0,61.0,29.93,West,262,9.0,19.0,64,-99.99,,,-99.99,,2013-08-11 01:22:00,
2013-08-10 18:32:00,74.0,60.0,29.94,WSW,241,6.0,16.0,62,-99.99,,,-99.99,,2013-08-11 01:32:00,
2013-08-10 18:43:00,74.0,60.0,29.94,West,264,3.0,7.0,61,-99.99,,,-99.99,,2013-08-11 01:43:00,
2013-08-10 18:53:00,74.0,61.0,29.95,West,279,2.0,6.0,63,-99.99,,,-99.99,,2013-08-11 01:53:00,
2013-08-10 19:02:00,73.0,60.0,29.97,WNW,303,3.0,8.0,64,-99.99,,,-99.99,,2013-08-11 02:02:00,
2013-08-10 19:11:00,73.0,61.0,29.93,West,280,9.0,16.0,67,-99.99,,,-99.99,,2013-08-11 02:11:00,
2013-08-10 19:22:00,73.0,62.0,29.94,WSW,250,7.0,13.0,68,-99.99,,,-99.99,,2013-08-11 02:22:00,
2013-08-10 19:32:00,73.0,62.0,29.94,SW,231,5.0,9.0,67,-99.99,,,-99.99,,2013-08-11 02:32:00,
2013-08-10 19:43:00,73.0,61.0,29.95,SW,230,3.0,13.0,65,-99.99,,,-99.99,,2013-08-11 02:43:00,
2013-08-10 19:55:00,73.0,61.0,29.95,WSW,257,2.0,5.0,66,-99.99,,,-99.99,,2013-08-11 02:55:00,
2013-08-10 20:03:00,73.0,60.0,29.95,WNW,285,3.0,4.0,65,-99.99,,,-99.99,,2013-08-11 03:03:00,
2013-08-10 20:13:00,73.0,61.0,29.95,WSW,256,7.0,11.0,66,-99.99,,,-99.99,,2013-08-11 03:13:00,
2013-08-10 20:24:00,73.0,60.0,29.96,WSW,253,5.0,10.0,65,-99.99,,,-99.99,,2013-08-11 03:24:00,
2013-08-10 20:34:00,72.0,59.0,29.98,WSW,244,6.0,12.0,64,-99.99,,,-99.99,,2013-08-11 03:34:00,
2013-08-10 20:43:00,72.0,62.0,29.99,WSW,250,4.0,6.0,70,-99.99,,,-99.99,,2013-08-11 03:43:00,
2013-08-10 20:54:00,71.0,62.0,29.96,WNW,295,8.0,13.0,72,-99.99,,,-99.99,,2013-08-11 03:54:00,
2013-08-10 21:01:00,70.0,62.0,29.94,NW,317,5.0,16.0,73,-99.99,,,-99.99,,2013-08-11 04:01:00,
2013-08-10 21:12:00,69.0,63.0,29.96,ESE,115,3.0,11.0,80,-99.99,,,-99.99,,2013-08-11 04:12:00,
2013-08-10 21:22:00,70.0,61.0,29.98,West,270,4.0,15.0,74,-99.99,,,-99.99,,2013-08-11 04:22:00,
2013-08-10 21:32:00,70.0,61.0,29.97,SW,218,3.0,8.0,75,-99.99,,,-99.99,,2013-08-11 04:32:00,
2013-08-10 21:42:00,69.0,62.0,29.98,SW,224,1.0,3.0,78,-99.99,,,-99.99,,2013-08-11 04:42:00,
2013-08-10 21:53:00,68.0,62.0,29.97,SW,228,2.0,4.0,80,-99.99,,,-99.99,,2013-08-11 04:53:00,
2013-08-10 22:02:00,67.0,63.0,29.99,SW,234,1.0,4.0,87,-99.99,,,-99.99,,2013-08-11 05:02:00,
2013-08-10 22:22:00,67.0,62.0,29.99,East,88,1.0,4.0,84,-99.99,,,-99.99,,2013-08-11 05:22:00,
2013-08-10 22:34:00,67.0,62.0,29.99,SSE,153,2.0,6.0,86,-99.99,,,-99.99,,2013-08-11 05:34:00,
2013-08-10 22:44:00,66.0,63.0,29.99,SE,138,1.0,2.0,87,-99.99,,,-99.99,,2013-08-11 05:44:00,
2013-08-10 23:14:00,66.0,63.0,29.99,SW,236,2.0,5.0,88,-99.99,,,-99.99,,2013-08-11 06:14:00,
2013-08-10 23:23:00,66.0,63.0,29.99,SW,236,2.0,5.0,88,-99.99,,,-99.99,,2013-08-11 06:23:00,
2013-08-10 23:34:00,66.0,62.0,29.98,WNW,293,1.0,3.0,86,-99.99,,,-99.99,,2013-08-11 06:34:00,
2013-08-10 23:46:00,66.0,62.0,29.98,WNW,300,3.0,6.0,85,-99.99,,,-99.99,,2013-08-11 06:46:00,